Scotia, Nebraska
Current Conditions -  °F | °C
As of 11:53 PM on Saturday 22 Nov 2014 (Local Time) from KODX Reporting Station
Clear Clear  
Wind Chill: 42°   Ceiling: Unl
Heat Index: 42°   Visibility: 10mi
Dew Point: 33°   Wind: 0mph
Humidity: 70%   Direction: NA
Pressure: 29.49"   Gusts: NA
Location:  41.47°N, 98.7°W
Report Text: KODX 230553Z AUTO 00000KT 10SM CLR 06/01 A2949 RMK AO2 SLP990 T00560006 10083 20006 401721061 58007
Loading
Personal Weather Stations






























Interactive Weather Map New forecast layout! Learn more

10-Day Weather Forecast

Advertisements
Track Severe Weather on mobile